Beallsville, OH (43716)

2:48 AM EDT on July 14, 2014 (GMT -0400)
Jerusalem (KOHJERUS2) Elev 1253 ft | 39.86 °N, 81.11 °W | Change Station

Current weather conditions updated 18 seconds ago

Overcast
Overcast
70.0 °F
Feels Like 70.0 °F
N
5.4
Wind Variable Wind from SW
Gusts 6.0 mph

Today is forecast to be Cooler than yesterday. A few thunderstorms possible.

Today
High -- | Low -- °F
--% Chance of Precip.
Yesterday
High -- | Low -- °F
Precip. -- in
6:07 AM 8:51 PM
Waning Gibbous, 95% visible
Pressure 29.94 in
Visibility 9.0 miles
Clouds Overcast 900 ft
Dew Point 69 °F
Humidity 98%
Rainfall 0.00 in
Snow Depth Not available.
UV 0 out of 12
Pollen 2.20 out of 12
Air Quality Not available.
Flu Activity Sporadic
METAR KHLG 140453Z AUTO 20005KT 9SM OVC009 22/21 A2996 RMK AO2 SLP136 T02170206 403000211

More Conditions Fewer Conditions

Pressure 29.94 in
Visibility 9.0 miles
Clouds Overcast 900 ft
Dew Point 69 °F
Humidity 98%
Rainfall 0.00 in
Snow Depth Not available.
UV 0 out of 12
Pollen 2.20 out of 12
Air Quality Not available.
Flu Activity Sporadic
METAR KHLG 140453Z AUTO 20005KT 9SM OVC009 22/21 A2996 RMK AO2 SLP136 T02170206 403000211

More Conditions Fewer Conditions

10-Day Weather Forecast

Almanac

Astronomy

Jul. 14, 2014 Rise Set
Actual Time 6:07 AM EDT 8:51 PM EDT
Civil Twilight 5:35 AM EDT 9:23 PM EDT
Nautical Twilight 4:55 AM EDT 10:03 PM EDT
Astronomical Twilight 4:10 AM EDT 10:48 PM EDT
Moon 10:21 PM EDT 8:48 AM EDT
Length of Visible Light 15h 48m
Length of Day
14h 44m
Tomorrow will be 1m 18s shorter.
Waning Gibbous, 95% of the Moon is Illuminated
Today
Waning Gibbous
Jul 18
Last Quarter
Jul 26
New
Aug 3
First Quarter
Aug 10
Full

Today's Extremes

State Highs State Lows

Community

WunderPhotos

Upload Photos

1,733,565 photos uploaded!

Nearby

Snow Depth

Station Depth Elevation
No new snow has been reported.

Earthquake Activity

City Distance Mag. Time & Date
No recent earthquake activity has been reported nearby.
Minimum magnitude displayed is 2.5.

Coastal Water Temperatures

Place Temperature
No Stations Reporting

Nearby Weather Stations

Station Location Temp. Heat Index Dew Point Humidity Wind Precip. Elev Updated Type
Jerusalem, Jerusalem, OH 70.0 °F - 69 °F 98% SW  at  5.4 mph 0.00 in / hr 1253 ft 2:48 AM EDT Rapid Fire
Shadyside, Ohio, Shadyside, OH 73.0 °F 70 °F 70 °F 92% SSW  at  0.0 mph 0.00 in / hr 669 ft 2:48 AM EDT Rapid Fire
Crawford Heights, Martins Ferry, OH 70.3 °F - 69 °F 95% ESE  at  2.2 mph - / hr 1109 ft 2:48 AM EDT Normal
Kidwell, WV, Sistersville, WV 70.3 °F - 70 °F 99% SW  at  0.0 mph - / hr 738 ft 2:34 AM EDT Normal
Whitmar Hills, Wheeling, WV 71.0 °F - 71 °F 99% SE  at  0.0 mph 0.00 in / hr 1060 ft 2:45 AM EDT Normal

Show More Stations Show Fewer Stations